Humidity-temperature Sensor

Selected Measurement Type: Air Temperature

 
Air Temperature [°C]     6 entries per hour
Showing data from 4/24/2015 (00:00:00 Z) to 4/23/2015 (00:01:00 Z)
Previous Next [ Day | 3-Days | 7-Days ]
First Last
Prev [ Day | 3-Days | 7-Days ] Next
First Last

Start Time:     :
End Time:     :     
Time (in GMT) :00 :50 :40 :30 :20 :10
Previous Next [ Day | 3-Days | 7-Days ]
First Last
Prev [ Day | 3-Days | 7-Days ] Next
First Last


123 => good data
MM => data is determined as missing
-- => data not received/configured
Back to Top Back to Top
4/24/2015 00:00 to 23:10 28.04 28.03 27.90 27.98 27.95 28.11
4/23/2015 23:00 to 22:10 28.27 28.50 28.36 28.42 28.44 28.23
4/23/2015 22:00 to 21:10 28.40 28.35 28.31 28.39 28.27 28.18
4/23/2015 21:00 to 20:10 28.31 28.37 28.37 28.22 28.37 28.38
4/23/2015 20:00 to 19:10 28.26 28.28 28.20 28.10 28.32 28.24
4/23/2015 19:00 to 18:10 28.30 28.22 28.30 28.21 28.33 28.23
4/23/2015 18:00 to 17:10 28.30 28.24 28.36 28.23 28.23 28.27
4/23/2015 17:00 to 16:10 28.20 28.20 28.13 28.24 28.16 28.05
4/23/2015 16:00 to 15:10 28.11 28.10 28.19 28.10 28.03 27.97
4/23/2015 15:00 to 14:10 27.97 28.05 28.05 27.85 27.91 27.92
4/23/2015 14:00 to 13:10 27.87 27.80 27.73 27.64 27.39 27.32
4/23/2015 13:00 to 12:10 27.52 27.47 27.39 27.09 27.15 27.63
4/23/2015 12:00 to 11:10 27.83 27.86 27.70 27.48 27.16 27.49
4/23/2015 11:00 to 10:10 27.60 27.63 27.69 27.57 27.54 27.38
4/23/2015 10:00 to 9:10 27.37 27.42 27.16 27.33 27.31 27.46
4/23/2015 09:00 to 8:10 27.66 27.57 27.60 27.61 27.68 27.71
4/23/2015 08:00 to 7:10 27.65 27.68 27.57 27.66 27.68 27.36
4/23/2015 07:00 to 6:10 27.35 27.07 27.27 27.16 27.08 27.13
4/23/2015 06:00 to 5:10 26.57 26.23 26.10 26.93 27.55 27.52
4/23/2015 05:00 to 4:10 27.48 27.54 27.58 27.75 27.66 27.64
4/23/2015 04:00 to 3:10 27.63 27.49 27.62 27.54 27.61 27.59
4/23/2015 03:00 to 2:10 27.42 27.59 27.65 27.60 27.72 27.57
4/23/2015 02:00 to 1:10 27.67 27.69 27.80 27.73 27.78 27.84
4/23/2015 01:00 to 0:10 27.75 27.57 27.61 27.76 27.82 27.84